sensor_id;sensor_type;location;lat;lon;timestamp;P1;durP1;ratioP1;P2;durP2;ratioP2
21018;SDS011;10667;51.056;3.732;2023-05-07T00:02:05;10.43;;;3.92;;
21018;SDS011;10667;51.056;3.732;2023-05-07T00:04:32;9.48;;;3.70;;
21018;SDS011;10667;51.056;3.732;2023-05-07T00:07:02;8.77;;;3.72;;
21018;SDS011;10667;51.056;3.732;2023-05-07T00:09:27;7.13;;;3.90;;
21018;SDS011;10667;51.056;3.732;2023-05-07T00:11:53;10.90;;;3.70;;
21018;SDS011;10667;51.056;3.732;2023-05-07T00:14:19;7.20;;;3.08;;
21018;SDS011;10667;51.056;3.732;2023-05-07T00:16:45;8.93;;;3.83;;
21018;SDS011;10667;51.056;3.732;2023-05-07T00:19:10;6.43;;;3.58;;
21018;SDS011;10667;51.056;3.732;2023-05-07T00:21:36;9.30;;;3.88;;
21018;SDS011;10667;51.056;3.732;2023-05-07T00:24:02;13.70;;;3.95;;
21018;SDS011;10667;51.056;3.732;2023-05-07T00:26:28;6.25;;;2.95;;
21018;SDS011;10667;51.056;3.732;2023-05-07T00:28:53;6.97;;;3.20;;
21018;SDS011;10667;51.056;3.732;2023-05-07T00:31:19;4.88;;;2.53;;
21018;SDS011;10667;51.056;3.732;2023-05-07T00:33:45;5.20;;;3.05;;
21018;SDS011;10667;51.056;3.732;2023-05-07T00:36:10;4.50;;;2.78;;
21018;SDS011;10667;51.056;3.732;2023-05-07T00:38:36;5.70;;;2.92;;
21018;SDS011;10667;51.056;3.732;2023-05-07T00:41:01;5.93;;;3.05;;
21018;SDS011;10667;51.056;3.732;2023-05-07T00:43:27;7.35;;;3.67;;
21018;SDS011;10667;51.056;3.732;2023-05-07T00:45:53;8.55;;;3.47;;
21018;SDS011;10667;51.056;3.732;2023-05-07T00:48:19;10.68;;;3.85;;
21018;SDS011;10667;51.056;3.732;2023-05-07T00:50:45;9.15;;;3.83;;
21018;SDS011;10667;51.056;3.732;2023-05-07T00:53:12;7.10;;;2.85;;
21018;SDS011;10667;51.056;3.732;2023-05-07T00:55:38;7.05;;;3.45;;
21018;SDS011;10667;51.056;3.732;2023-05-07T00:58:04;8.07;;;3.47;;
21018;SDS011;10667;51.056;3.732;2023-05-07T01:00:30;7.68;;;3.75;;
21018;SDS011;10667;51.056;3.732;2023-05-07T01:02:56;9.95;;;4.03;;
21018;SDS011;10667;51.056;3.732;2023-05-07T01:05:23;9.10;;;4.28;;
21018;SDS011;10667;51.056;3.732;2023-05-07T01:07:51;9.48;;;4.05;;
21018;SDS011;10667;51.056;3.732;2023-05-07T01:10:18;8.23;;;3.63;;
21018;SDS011;10667;51.056;3.732;2023-05-07T01:12:44;10.77;;;3.58;;
21018;SDS011;10667;51.056;3.732;2023-05-07T01:15:12;10.38;;;4.18;;
21018;SDS011;10667;51.056;3.732;2023-05-07T01:17:39;10.95;;;3.90;;
21018;SDS011;10667;51.056;3.732;2023-05-07T01:20:06;10.48;;;4.20;;
21018;SDS011;10667;51.056;3.732;2023-05-07T01:22:38;8.30;;;3.80;;
21018;SDS011;10667;51.056;3.732;2023-05-07T01:25:05;9.73;;;3.28;;
21018;SDS011;10667;51.056;3.732;2023-05-07T01:27:33;6.45;;;3.45;;
21018;SDS011;10667;51.056;3.732;2023-05-07T01:30:00;6.13;;;3.05;;
21018;SDS011;10667;51.056;3.732;2023-05-07T01:32:33;7.78;;;3.33;;
21018;SDS011;10667;51.056;3.732;2023-05-07T01:35:15;8.43;;;3.30;;
21018;SDS011;10667;51.056;3.732;2023-05-07T01:37:49;8.63;;;3.38;;
21018;SDS011;10667;51.056;3.732;2023-05-07T01:40:15;6.95;;;3.70;;
21018;SDS011;10667;51.056;3.732;2023-05-07T01:42:42;8.93;;;3.67;;
21018;SDS011;10667;51.056;3.732;2023-05-07T01:45:09;9.07;;;3.88;;
21018;SDS011;10667;51.056;3.732;2023-05-07T01:47:35;7.32;;;3.42;;
21018;SDS011;10667;51.056;3.732;2023-05-07T01:50:02;12.15;;;3.72;;
21018;SDS011;10667;51.056;3.732;2023-05-07T01:52:30;10.05;;;4.47;;
21018;SDS011;10667;51.056;3.732;2023-05-07T01:54:56;7.00;;;3.60;;
21018;SDS011;10667;51.056;3.732;2023-05-07T01:57:22;10.73;;;4.57;;
21018;SDS011;10667;51.056;3.732;2023-05-07T01:59:47;9.80;;;4.25;;
21018;SDS011;10667;51.056;3.732;2023-05-07T02:02:13;9.95;;;4.15;;
21018;SDS011;10667;51.056;3.732;2023-05-07T02:04:39;7.13;;;3.83;;
21018;SDS011;10667;51.056;3.732;2023-05-07T02:07:04;7.45;;;4.30;;
21018;SDS011;10667;51.056;3.732;2023-05-07T02:09:30;8.55;;;4.53;;
21018;SDS011;10667;51.056;3.732;2023-05-07T02:11:56;9.00;;;4.30;;
21018;SDS011;10667;51.056;3.732;2023-05-07T02:14:21;9.02;;;4.40;;
21018;SDS011;10667;51.056;3.732;2023-05-07T02:16:47;8.90;;;4.45;;
21018;SDS011;10667;51.056;3.732;2023-05-07T02:19:12;8.02;;;4.10;;
21018;SDS011;10667;51.056;3.732;2023-05-07T02:21:38;9.10;;;4.65;;
21018;SDS011;10667;51.056;3.732;2023-05-07T02:24:04;10.02;;;4.07;;
21018;SDS011;10667;51.056;3.732;2023-05-07T02:26:30;6.50;;;3.22;;
21018;SDS011;10667;51.056;3.732;2023-05-07T02:28:56;7.85;;;4.35;;
21018;SDS011;10667;51.056;3.732;2023-05-07T02:31:21;10.68;;;4.32;;
21018;SDS011;10667;51.056;3.732;2023-05-07T02:33:47;7.53;;;3.83;;
21018;SDS011;10667;51.056;3.732;2023-05-07T02:36:12;8.90;;;4.88;;
21018;SDS011;10667;51.056;3.732;2023-05-07T02:38:38;8.60;;;4.07;;
21018;SDS011;10667;51.056;3.732;2023-05-07T02:41:04;7.80;;;4.53;;
21018;SDS011;10667;51.056;3.732;2023-05-07T02:43:30;8.55;;;4.28;;
21018;SDS011;10667;51.056;3.732;2023-05-07T02:46:05;9.50;;;4.60;;
21018;SDS011;10667;51.056;3.732;2023-05-07T02:48:32;8.40;;;4.22;;
21018;SDS011;10667;51.056;3.732;2023-05-07T02:50:58;7.32;;;3.90;;
21018;SDS011;10667;51.056;3.732;2023-05-07T02:53:25;7.85;;;4.60;;
21018;SDS011;10667;51.056;3.732;2023-05-07T02:55:54;8.82;;;4.13;;
21018;SDS011;10667;51.056;3.732;2023-05-07T02:58:21;7.55;;;4.43;;
21018;SDS011;10667;51.056;3.732;2023-05-07T03:00:47;9.63;;;4.38;;
21018;SDS011;10667;51.056;3.732;2023-05-07T03:03:13;11.07;;;4.38;;
21018;SDS011;10667;51.056;3.732;2023-05-07T03:05:39;7.43;;;4.10;;
21018;SDS011;10667;51.056;3.732;2023-05-07T03:08:04;8.85;;;4.18;;
21018;SDS011;10667;51.056;3.732;2023-05-07T03:10:30;8.23;;;4.05;;
21018;SDS011;10667;51.056;3.732;2023-05-07T03:12:56;6.32;;;4.10;;
21018;SDS011;10667;51.056;3.732;2023-05-07T03:15:21;8.57;;;4.07;;
21018;SDS011;10667;51.056;3.732;2023-05-07T03:17:50;8.63;;;4.07;;
21018;SDS011;10667;51.056;3.732;2023-05-07T03:20:16;8.18;;;3.83;;
21018;SDS011;10667;51.056;3.732;2023-05-07T03:22:41;6.55;;;4.07;;
21018;SDS011;10667;51.056;3.732;2023-05-07T03:25:07;7.65;;;4.53;;
21018;SDS011;10667;51.056;3.732;2023-05-07T03:27:34;7.55;;;4.25;;
21018;SDS011;10667;51.056;3.732;2023-05-07T03:29:59;10.25;;;4.40;;
21018;SDS011;10667;51.056;3.732;2023-05-07T03:32:25;8.45;;;5.05;;
21018;SDS011;10667;51.056;3.732;2023-05-07T03:34:51;7.78;;;4.28;;
21018;SDS011;10667;51.056;3.732;2023-05-07T03:37:17;6.50;;;4.15;;
21018;SDS011;10667;51.056;3.732;2023-05-07T03:39:43;9.00;;;4.63;;
21018;SDS011;10667;51.056;3.732;2023-05-07T03:42:09;6.78;;;4.50;;
21018;SDS011;10667;51.056;3.732;2023-05-07T03:44:35;13.00;;;4.78;;
21018;SDS011;10667;51.056;3.732;2023-05-07T03:47:03;6.88;;;3.97;;
21018;SDS011;10667;51.056;3.732;2023-05-07T03:49:29;7.78;;;4.90;;
21018;SDS011;10667;51.056;3.732;2023-05-07T03:51:55;9.85;;;4.82;;
21018;SDS011;10667;51.056;3.732;2023-05-07T03:54:21;9.25;;;4.50;;
21018;SDS011;10667;51.056;3.732;2023-05-07T03:56:47;5.32;;;4.10;;
21018;SDS011;10667;51.056;3.732;2023-05-07T03:59:13;7.13;;;4.70;;
21018;SDS011;10667;51.056;3.732;2023-05-07T04:01:39;8.25;;;4.82;;
21018;SDS011;10667;51.056;3.732;2023-05-07T04:04:05;7.60;;;5.22;;
21018;SDS011;10667;51.056;3.732;2023-05-07T04:06:31;8.15;;;4.70;;
21018;SDS011;10667;51.056;3.732;2023-05-07T04:08:56;9.40;;;5.18;;
21018;SDS011;10667;51.056;3.732;2023-05-07T04:11:22;8.88;;;5.10;;
21018;SDS011;10667;51.056;3.732;2023-05-07T04:13:48;7.72;;;4.47;;
21018;SDS011;10667;51.056;3.732;2023-05-07T04:16:13;10.93;;;5.60;;
21018;SDS011;10667;51.056;3.732;2023-05-07T04:18:39;7.95;;;5.05;;
21018;SDS011;10667;51.056;3.732;2023-05-07T04:21:05;8.13;;;4.93;;
21018;SDS011;10667;51.056;3.732;2023-05-07T04:23:31;8.02;;;4.47;;
21018;SDS011;10667;51.056;3.732;2023-05-07T04:25:56;7.50;;;5.07;;
21018;SDS011;10667;51.056;3.732;2023-05-07T04:28:22;10.07;;;4.60;;
21018;SDS011;10667;51.056;3.732;2023-05-07T04:30:49;11.23;;;4.97;;
21018;SDS011;10667;51.056;3.732;2023-05-07T04:33:14;9.27;;;4.88;;
21018;SDS011;10667;51.056;3.732;2023-05-07T04:35:43;9.02;;;5.15;;
21018;SDS011;10667;51.056;3.732;2023-05-07T04:38:08;7.78;;;5.05;;
21018;SDS011;10667;51.056;3.732;2023-05-07T04:40:35;8.07;;;5.10;;
21018;SDS011;10667;51.056;3.732;2023-05-07T04:43:01;10.27;;;5.10;;
21018;SDS011;10667;51.056;3.732;2023-05-07T04:45:27;7.63;;;5.38;;
21018;SDS011;10667;51.056;3.732;2023-05-07T04:47:52;11.52;;;5.88;;
21018;SDS011;10667;51.056;3.732;2023-05-07T04:50:18;11.70;;;5.45;;
21018;SDS011;10667;51.056;3.732;2023-05-07T04:52:44;8.93;;;5.40;;
21018;SDS011;10667;51.056;3.732;2023-05-07T04:55:10;11.85;;;5.85;;
21018;SDS011;10667;51.056;3.732;2023-05-07T04:57:36;9.18;;;5.90;;
21018;SDS011;10667;51.056;3.732;2023-05-07T05:00:03;10.50;;;5.25;;
21018;SDS011;10667;51.056;3.732;2023-05-07T05:02:29;9.48;;;5.35;;
21018;SDS011;10667;51.056;3.732;2023-05-07T05:04:55;10.85;;;6.53;;
21018;SDS011;10667;51.056;3.732;2023-05-07T05:07:20;10.00;;;5.60;;
21018;SDS011;10667;51.056;3.732;2023-05-07T05:09:46;9.98;;;5.20;;
21018;SDS011;10667;51.056;3.732;2023-05-07T05:12:12;10.38;;;5.28;;
21018;SDS011;10667;51.056;3.732;2023-05-07T05:14:37;12.10;;;5.97;;
21018;SDS011;10667;51.056;3.732;2023-05-07T05:17:03;11.80;;;5.47;;
21018;SDS011;10667;51.056;3.732;2023-05-07T05:19:28;10.13;;;5.35;;
21018;SDS011;10667;51.056;3.732;2023-05-07T05:21:54;11.20;;;5.13;;
21018;SDS011;10667;51.056;3.732;2023-05-07T05:24:20;11.63;;;5.57;;
21018;SDS011;10667;51.056;3.732;2023-05-07T05:26:45;10.40;;;5.43;;
21018;SDS011;10667;51.056;3.732;2023-05-07T05:29:11;9.10;;;5.25;;
21018;SDS011;10667;51.056;3.732;2023-05-07T05:31:37;14.82;;;6.10;;
21018;SDS011;10667;51.056;3.732;2023-05-07T05:34:02;13.10;;;5.45;;
21018;SDS011;10667;51.056;3.732;2023-05-07T05:36:28;14.00;;;5.70;;
21018;SDS011;10667;51.056;3.732;2023-05-07T05:38:55;9.27;;;5.72;;
21018;SDS011;10667;51.056;3.732;2023-05-07T05:41:21;15.27;;;6.90;;
21018;SDS011;10667;51.056;3.732;2023-05-07T05:43:46;14.10;;;5.93;;
21018;SDS011;10667;51.056;3.732;2023-05-07T05:46:12;13.90;;;6.47;;
21018;SDS011;10667;51.056;3.732;2023-05-07T05:48:37;12.57;;;6.90;;
21018;SDS011;10667;51.056;3.732;2023-05-07T05:51:03;15.32;;;6.50;;
21018;SDS011;10667;51.056;3.732;2023-05-07T05:53:29;12.10;;;6.70;;
21018;SDS011;10667;51.056;3.732;2023-05-07T05:55:54;13.48;;;6.78;;
21018;SDS011;10667;51.056;3.732;2023-05-07T05:58:20;12.73;;;6.63;;
21018;SDS011;10667;51.056;3.732;2023-05-07T06:00:46;12.98;;;6.60;;
21018;SDS011;10667;51.056;3.732;2023-05-07T06:03:13;19.08;;;7.93;;
21018;SDS011;10667;51.056;3.732;2023-05-07T06:05:39;16.13;;;6.65;;
21018;SDS011;10667;51.056;3.732;2023-05-07T06:08:04;15.48;;;8.02;;
21018;SDS011;10667;51.056;3.732;2023-05-07T06:10:30;13.85;;;7.07;;
21018;SDS011;10667;51.056;3.732;2023-05-07T06:12:55;13.27;;;7.57;;
21018;SDS011;10667;51.056;3.732;2023-05-07T06:15:21;11.50;;;7.20;;
21018;SDS011;10667;51.056;3.732;2023-05-07T06:17:47;15.07;;;7.78;;
21018;SDS011;10667;51.056;3.732;2023-05-07T06:20:14;11.38;;;7.30;;
21018;SDS011;10667;51.056;3.732;2023-05-07T06:22:39;15.27;;;7.55;;
21018;SDS011;10667;51.056;3.732;2023-05-07T06:25:05;14.73;;;7.20;;
21018;SDS011;10667;51.056;3.732;2023-05-07T06:27:31;12.15;;;6.68;;
21018;SDS011;10667;51.056;3.732;2023-05-07T06:29:57;10.13;;;6.65;;
21018;SDS011;10667;51.056;3.732;2023-05-07T06:32:22;14.57;;;6.47;;
21018;SDS011;10667;51.056;3.732;2023-05-07T06:34:48;14.55;;;6.43;;
21018;SDS011;10667;51.056;3.732;2023-05-07T06:37:13;12.98;;;6.55;;
21018;SDS011;10667;51.056;3.732;2023-05-07T06:39:39;11.40;;;6.28;;
21018;SDS011;10667;51.056;3.732;2023-05-07T06:42:05;13.23;;;6.72;;
21018;SDS011;10667;51.056;3.732;2023-05-07T06:44:31;13.13;;;6.28;;
21018;SDS011;10667;51.056;3.732;2023-05-07T06:46:57;13.18;;;7.63;;
21018;SDS011;10667;51.056;3.732;2023-05-07T06:49:22;11.88;;;6.78;;
21018;SDS011;10667;51.056;3.732;2023-05-07T06:51:48;10.77;;;6.10;;
21018;SDS011;10667;51.056;3.732;2023-05-07T06:54:13;14.07;;;6.50;;
21018;SDS011;10667;51.056;3.732;2023-05-07T06:56:39;10.43;;;6.75;;
21018;SDS011;10667;51.056;3.732;2023-05-07T06:59:05;12.27;;;6.70;;
21018;SDS011;10667;51.056;3.732;2023-05-07T07:01:31;15.80;;;7.30;;
21018;SDS011;10667;51.056;3.732;2023-05-07T07:03:57;10.65;;;6.45;;
21018;SDS011;10667;51.056;3.732;2023-05-07T07:06:23;13.40;;;6.88;;
21018;SDS011;10667;51.056;3.732;2023-05-07T07:08:48;11.57;;;7.10;;
21018;SDS011;10667;51.056;3.732;2023-05-07T07:11:14;16.15;;;6.45;;
21018;SDS011;10667;51.056;3.732;2023-05-07T07:13:40;12.35;;;6.68;;
21018;SDS011;10667;51.056;3.732;2023-05-07T07:16:06;9.00;;;6.75;;
21018;SDS011;10667;51.056;3.732;2023-05-07T07:18:32;12.05;;;6.72;;
21018;SDS011;10667;51.056;3.732;2023-05-07T07:20:57;16.65;;;7.00;;
21018;SDS011;10667;51.056;3.732;2023-05-07T07:23:23;10.43;;;6.72;;
21018;SDS011;10667;51.056;3.732;2023-05-07T07:25:50;14.23;;;6.80;;
21018;SDS011;10667;51.056;3.732;2023-05-07T07:28:16;12.88;;;5.85;;
21018;SDS011;10667;51.056;3.732;2023-05-07T07:30:46;13.25;;;6.20;;
21018;SDS011;10667;51.056;3.732;2023-05-07T07:33:11;9.23;;;6.10;;
21018;SDS011;10667;51.056;3.732;2023-05-07T07:35:37;13.45;;;6.00;;
21018;SDS011;10667;51.056;3.732;2023-05-07T07:38:02;13.52;;;6.35;;
21018;SDS011;10667;51.056;3.732;2023-05-07T07:40:28;10.25;;;5.57;;
21018;SDS011;10667;51.056;3.732;2023-05-07T07:42:54;11.07;;;5.75;;
21018;SDS011;10667;51.056;3.732;2023-05-07T07:45:20;10.02;;;5.63;;
21018;SDS011;10667;51.056;3.732;2023-05-07T07:47:45;12.80;;;6.60;;
21018;SDS011;10667;51.056;3.732;2023-05-07T07:50:11;12.20;;;5.93;;
21018;SDS011;10667;51.056;3.732;2023-05-07T07:52:37;13.73;;;6.53;;
21018;SDS011;10667;51.056;3.732;2023-05-07T07:55:03;11.48;;;5.45;;
21018;SDS011;10667;51.056;3.732;2023-05-07T07:57:29;13.68;;;6.50;;
21018;SDS011;10667;51.056;3.732;2023-05-07T07:59:55;11.65;;;6.60;;
21018;SDS011;10667;51.056;3.732;2023-05-07T08:02:21;10.50;;;6.35;;
21018;SDS011;10667;51.056;3.732;2023-05-07T08:04:47;11.40;;;5.75;;
21018;SDS011;10667;51.056;3.732;2023-05-07T08:07:12;11.88;;;6.22;;
21018;SDS011;10667;51.056;3.732;2023-05-07T08:09:38;11.93;;;5.75;;
21018;SDS011;10667;51.056;3.732;2023-05-07T08:12:05;13.82;;;6.32;;
21018;SDS011;10667;51.056;3.732;2023-05-07T08:14:32;12.07;;;6.00;;
21018;SDS011;10667;51.056;3.732;2023-05-07T08:16:58;10.82;;;5.40;;
21018;SDS011;10667;51.056;3.732;2023-05-07T08:19:23;12.18;;;6.05;;
21018;SDS011;10667;51.056;3.732;2023-05-07T08:21:49;8.88;;;5.72;;
21018;SDS011;10667;51.056;3.732;2023-05-07T08:24:15;12.35;;;6.65;;
21018;SDS011;10667;51.056;3.732;2023-05-07T08:26:41;10.18;;;6.32;;
21018;SDS011;10667;51.056;3.732;2023-05-07T08:29:08;9.43;;;4.95;;
21018;SDS011;10667;51.056;3.732;2023-05-07T08:31:34;10.45;;;5.90;;
21018;SDS011;10667;51.056;3.732;2023-05-07T08:34:02;9.68;;;6.22;;
21018;SDS011;10667;51.056;3.732;2023-05-07T08:36:28;10.93;;;6.05;;
21018;SDS011;10667;51.056;3.732;2023-05-07T08:38:54;10.40;;;5.85;;
21018;SDS011;10667;51.056;3.732;2023-05-07T08:41:20;11.10;;;6.45;;
21018;SDS011;10667;51.056;3.732;2023-05-07T08:43:49;11.93;;;5.68;;
21018;SDS011;10667;51.056;3.732;2023-05-07T08:46:21;12.48;;;6.78;;
21018;SDS011;10667;51.056;3.732;2023-05-07T08:48:47;10.80;;;5.43;;
21018;SDS011;10667;51.056;3.732;2023-05-07T08:51:15;10.60;;;5.65;;
21018;SDS011;10667;51.056;3.732;2023-05-07T08:53:43;12.57;;;6.55;;
21018;SDS011;10667;51.056;3.732;2023-05-07T08:56:09;11.23;;;6.43;;
21018;SDS011;10667;51.056;3.732;2023-05-07T08:58:35;12.10;;;5.88;;
21018;SDS011;10667;51.056;3.732;2023-05-07T09:01:02;13.57;;;6.32;;
21018;SDS011;10667;51.056;3.732;2023-05-07T09:03:32;10.95;;;5.88;;
21018;SDS011;10667;51.056;3.732;2023-05-07T09:05:58;11.35;;;5.85;;
21018;SDS011;10667;51.056;3.732;2023-05-07T09:08:27;9.07;;;5.40;;
21018;SDS011;10667;51.056;3.732;2023-05-07T09:10:52;14.45;;;5.80;;
21018;SDS011;10667;51.056;3.732;2023-05-07T09:13:18;8.93;;;5.80;;
21018;SDS011;10667;51.056;3.732;2023-05-07T09:15:44;11.05;;;5.65;;
21018;SDS011;10667;51.056;3.732;2023-05-07T09:18:10;11.07;;;5.38;;
21018;SDS011;10667;51.056;3.732;2023-05-07T09:20:37;8.40;;;5.10;;
21018;SDS011;10667;51.056;3.732;2023-05-07T09:23:03;8.93;;;5.10;;
21018;SDS011;10667;51.056;3.732;2023-05-07T09:25:30;11.23;;;5.28;;
21018;SDS011;10667;51.056;3.732;2023-05-07T09:27:57;10.57;;;5.05;;
21018;SDS011;10667;51.056;3.732;2023-05-07T09:30:26;9.50;;;4.85;;
21018;SDS011;10667;51.056;3.732;2023-05-07T09:32:53;7.15;;;4.50;;
21018;SDS011;10667;51.056;3.732;2023-05-07T09:35:19;8.00;;;4.90;;
21018;SDS011;10667;51.056;3.732;2023-05-07T09:37:46;9.57;;;5.60;;
21018;SDS011;10667;51.056;3.732;2023-05-07T09:40:22;11.65;;;5.20;;
21018;SDS011;10667;51.056;3.732;2023-05-07T09:42:49;12.30;;;6.00;;
21018;SDS011;10667;51.056;3.732;2023-05-07T09:45:16;8.30;;;4.78;;
21018;SDS011;10667;51.056;3.732;2023-05-07T09:47:46;11.43;;;5.75;;
21018;SDS011;10667;51.056;3.732;2023-05-07T09:50:14;9.07;;;5.00;;
21018;SDS011;10667;51.056;3.732;2023-05-07T09:52:41;11.63;;;4.97;;
21018;SDS011;10667;51.056;3.732;2023-05-07T09:55:08;10.10;;;5.22;;
21018;SDS011;10667;51.056;3.732;2023-05-07T09:57:35;8.18;;;4.75;;
21018;SDS011;10667;51.056;3.732;2023-05-07T10:00:02;8.85;;;4.55;;
21018;SDS011;10667;51.056;3.732;2023-05-07T10:02:33;8.95;;;3.95;;
21018;SDS011;10667;51.056;3.732;2023-05-07T10:05:01;8.82;;;4.60;;
21018;SDS011;10667;51.056;3.732;2023-05-07T10:07:28;7.05;;;4.97;;
21018;SDS011;10667;51.056;3.732;2023-05-07T10:09:55;9.32;;;4.97;;
21018;SDS011;10667;51.056;3.732;2023-05-07T10:12:21;9.00;;;4.63;;
21018;SDS011;10667;51.056;3.732;2023-05-07T10:14:48;8.63;;;4.35;;
21018;SDS011;10667;51.056;3.732;2023-05-07T10:17:16;11.18;;;5.15;;
21018;SDS011;10667;51.056;3.732;2023-05-07T10:19:44;8.93;;;4.30;;
21018;SDS011;10667;51.056;3.732;2023-05-07T10:22:10;8.75;;;4.50;;
21018;SDS011;10667;51.056;3.732;2023-05-07T10:24:38;7.68;;;4.03;;
21018;SDS011;10667;51.056;3.732;2023-05-07T10:27:05;8.45;;;4.63;;
21018;SDS011;10667;51.056;3.732;2023-05-07T10:29:39;9.55;;;4.78;;
21018;SDS011;10667;51.056;3.732;2023-05-07T10:34:53;10.30;;;4.32;;
21018;SDS011;10667;51.056;3.732;2023-05-07T10:37:21;6.68;;;4.20;;
21018;SDS011;10667;51.056;3.732;2023-05-07T10:39:47;6.28;;;3.80;;
21018;SDS011;10667;51.056;3.732;2023-05-07T10:42:14;9.60;;;3.50;;
21018;SDS011;10667;51.056;3.732;2023-05-07T10:44:40;7.18;;;3.40;;
21018;SDS011;10667;51.056;3.732;2023-05-07T10:47:12;8.18;;;3.60;;
21018;SDS011;10667;51.056;3.732;2023-05-07T10:52:15;6.28;;;3.00;;
21018;SDS011;10667;51.056;3.732;2023-05-07T10:55:18;4.60;;;3.10;;
21018;SDS011;10667;51.056;3.732;2023-05-07T10:57:44;8.90;;;2.90;;
21018;SDS011;10667;51.056;3.732;2023-05-07T11:00:56;5.55;;;3.05;;
21018;SDS011;10667;51.056;3.732;2023-05-07T11:05:25;7.32;;;3.63;;
21018;SDS011;10667;51.056;3.732;2023-05-07T11:07:55;5.63;;;3.08;;
21018;SDS011;10667;51.056;3.732;2023-05-07T11:10:21;4.60;;;3.00;;
21018;SDS011;10667;51.056;3.732;2023-05-07T11:15:13;6.53;;;3.20;;
21018;SDS011;10667;51.056;3.732;2023-05-07T11:20:43;8.48;;;3.67;;
21018;SDS011;10667;51.056;3.732;2023-05-07T11:26:02;5.35;;;2.88;;
21018;SDS011;10667;51.056;3.732;2023-05-07T11:28:28;6.35;;;3.55;;
21018;SDS011;10667;51.056;3.732;2023-05-07T11:30:56;6.60;;;3.08;;
21018;SDS011;10667;51.056;3.732;2023-05-07T11:33:22;4.50;;;3.10;;
21018;SDS011;10667;51.056;3.732;2023-05-07T11:35:50;4.78;;;3.17;;
21018;SDS011;10667;51.056;3.732;2023-05-07T11:38:18;4.70;;;2.97;;
21018;SDS011;10667;51.056;3.732;2023-05-07T11:40:54;8.88;;;4.13;;
21018;SDS011;10667;51.056;3.732;2023-05-07T11:43:22;5.50;;;2.90;;
21018;SDS011;10667;51.056;3.732;2023-05-07T11:45:48;4.55;;;2.53;;
21018;SDS011;10667;51.056;3.732;2023-05-07T11:48:14;6.55;;;2.70;;
21018;SDS011;10667;51.056;3.732;2023-05-07T11:53:17;6.57;;;3.05;;
21018;SDS011;10667;51.056;3.732;2023-05-07T11:55:43;5.22;;;2.83;;
21018;SDS011;10667;51.056;3.732;2023-05-07T11:58:10;3.95;;;2.63;;
21018;SDS011;10667;51.056;3.732;2023-05-07T12:00:37;5.10;;;2.75;;
21018;SDS011;10667;51.056;3.732;2023-05-07T12:03:06;4.63;;;2.28;;
21018;SDS011;10667;51.056;3.732;2023-05-07T12:05:32;3.58;;;2.40;;
21018;SDS011;10667;51.056;3.732;2023-05-07T12:07:57;8.25;;;3.10;;
21018;SDS011;10667;51.056;3.732;2023-05-07T12:10:23;4.13;;;2.40;;
21018;SDS011;10667;51.056;3.732;2023-05-07T12:12:50;4.65;;;2.60;;
21018;SDS011;10667;51.056;3.732;2023-05-07T12:15:16;5.80;;;3.13;;
21018;SDS011;10667;51.056;3.732;2023-05-07T12:17:42;4.40;;;2.78;;
21018;SDS011;10667;51.056;3.732;2023-05-07T12:20:08;4.97;;;2.90;;
21018;SDS011;10667;51.056;3.732;2023-05-07T12:22:35;6.60;;;2.92;;
21018;SDS011;10667;51.056;3.732;2023-05-07T12:25:01;4.85;;;3.25;;
21018;SDS011;10667;51.056;3.732;2023-05-07T12:27:27;5.55;;;2.95;;
21018;SDS011;10667;51.056;3.732;2023-05-07T12:29:53;4.18;;;2.78;;
21018;SDS011;10667;51.056;3.732;2023-05-07T12:32:20;6.45;;;3.13;;
21018;SDS011;10667;51.056;3.732;2023-05-07T12:34:46;3.75;;;2.47;;
21018;SDS011;10667;51.056;3.732;2023-05-07T12:37:15;3.05;;;2.10;;
21018;SDS011;10667;51.056;3.732;2023-05-07T12:39:46;3.47;;;2.33;;
21018;SDS011;10667;51.056;3.732;2023-05-07T12:42:16;3.03;;;2.20;;
21018;SDS011;10667;51.056;3.732;2023-05-07T12:44:45;3.50;;;2.30;;
21018;SDS011;10667;51.056;3.732;2023-05-07T12:47:11;3.53;;;2.33;;
21018;SDS011;10667;51.056;3.732;2023-05-07T12:49:37;3.65;;;2.53;;
21018;SDS011;10667;51.056;3.732;2023-05-07T12:52:04;5.30;;;2.45;;
21018;SDS011;10667;51.056;3.732;2023-05-07T12:54:31;4.10;;;2.47;;
21018;SDS011;10667;51.056;3.732;2023-05-07T12:57:01;3.58;;;2.22;;
21018;SDS011;10667;51.056;3.732;2023-05-07T12:59:37;4.95;;;2.50;;
21018;SDS011;10667;51.056;3.732;2023-05-07T13:02:05;4.28;;;2.30;;
21018;SDS011;10667;51.056;3.732;2023-05-07T13:04:31;8.18;;;2.28;;
21018;SDS011;10667;51.056;3.732;2023-05-07T13:06:57;3.75;;;2.00;;
21018;SDS011;10667;51.056;3.732;2023-05-07T13:09:24;3.25;;;2.03;;
21018;SDS011;10667;51.056;3.732;2023-05-07T13:11:49;3.78;;;1.73;;
21018;SDS011;10667;51.056;3.732;2023-05-07T13:14:15;2.85;;;2.17;;
21018;SDS011;10667;51.056;3.732;2023-05-07T13:16:41;3.33;;;2.05;;
21018;SDS011;10667;51.056;3.732;2023-05-07T13:19:07;2.80;;;1.90;;
21018;SDS011;10667;51.056;3.732;2023-05-07T13:21:33;3.83;;;2.28;;
21018;SDS011;10667;51.056;3.732;2023-05-07T13:23:58;4.43;;;2.47;;
21018;SDS011;10667;51.056;3.732;2023-05-07T13:26:25;3.28;;;2.15;;
21018;SDS011;10667;51.056;3.732;2023-05-07T13:28:51;2.63;;;2.17;;
21018;SDS011;10667;51.056;3.732;2023-05-07T13:31:19;4.75;;;2.80;;
21018;SDS011;10667;51.056;3.732;2023-05-07T13:33:46;2.75;;;2.22;;
21018;SDS011;10667;51.056;3.732;2023-05-07T13:36:11;3.72;;;2.63;;
21018;SDS011;10667;51.056;3.732;2023-05-07T13:38:37;7.80;;;2.75;;
21018;SDS011;10667;51.056;3.732;2023-05-07T13:41:03;2.95;;;2.20;;
21018;SDS011;10667;51.056;3.732;2023-05-07T13:43:29;4.00;;;2.40;;
21018;SDS011;10667;51.056;3.732;2023-05-07T13:45:55;4.00;;;2.03;;
21018;SDS011;10667;51.056;3.732;2023-05-07T13:48:20;3.60;;;2.10;;
21018;SDS011;10667;51.056;3.732;2023-05-07T13:50:46;7.38;;;4.03;;
21018;SDS011;10667;51.056;3.732;2023-05-07T13:53:11;5.85;;;3.15;;
21018;SDS011;10667;51.056;3.732;2023-05-07T13:55:37;3.17;;;2.25;;
21018;SDS011;10667;51.056;3.732;2023-05-07T13:58:03;5.50;;;2.40;;
21018;SDS011;10667;51.056;3.732;2023-05-07T14:00:29;2.88;;;2.33;;
21018;SDS011;10667;51.056;3.732;2023-05-07T14:02:55;3.92;;;2.22;;
21018;SDS011;10667;51.056;3.732;2023-05-07T14:05:21;4.35;;;2.30;;
21018;SDS011;10667;51.056;3.732;2023-05-07T14:07:51;6.15;;;2.90;;
21018;SDS011;10667;51.056;3.732;2023-05-07T14:10:18;5.13;;;2.80;;
21018;SDS011;10667;51.056;3.732;2023-05-07T14:12:44;4.57;;;2.65;;
21018;SDS011;10667;51.056;3.732;2023-05-07T14:15:11;4.50;;;2.92;;
21018;SDS011;10667;51.056;3.732;2023-05-07T14:17:37;4.28;;;2.88;;
21018;SDS011;10667;51.056;3.732;2023-05-07T14:20:03;5.55;;;3.30;;
21018;SDS011;10667;51.056;3.732;2023-05-07T14:22:31;6.82;;;3.72;;
21018;SDS011;10667;51.056;3.732;2023-05-07T14:24:56;5.32;;;4.70;;
21018;SDS011;10667;51.056;3.732;2023-05-07T14:27:22;7.80;;;5.10;;
21018;SDS011;10667;51.056;3.732;2023-05-07T14:29:48;9.93;;;5.10;;
21018;SDS011;10667;51.056;3.732;2023-05-07T14:32:16;6.43;;;5.43;;
21018;SDS011;10667;51.056;3.732;2023-05-07T14:34:43;7.55;;;5.32;;
21018;SDS011;10667;51.056;3.732;2023-05-07T14:37:09;8.63;;;4.82;;
21018;SDS011;10667;51.056;3.732;2023-05-07T14:39:35;6.68;;;5.05;;
21018;SDS011;10667;51.056;3.732;2023-05-07T14:42:01;6.70;;;4.97;;
21018;SDS011;10667;51.056;3.732;2023-05-07T14:44:27;7.97;;;5.65;;
21018;SDS011;10667;51.056;3.732;2023-05-07T14:46:52;7.47;;;5.80;;
21018;SDS011;10667;51.056;3.732;2023-05-07T14:49:18;7.65;;;6.03;;
21018;SDS011;10667;51.056;3.732;2023-05-07T14:51:45;9.98;;;6.18;;
21018;SDS011;10667;51.056;3.732;2023-05-07T14:54:12;10.27;;;7.45;;
21018;SDS011;10667;51.056;3.732;2023-05-07T14:56:38;10.90;;;8.00;;
21018;SDS011;10667;51.056;3.732;2023-05-07T14:59:04;11.23;;;8.90;;